sensor_id;sensor_type;location;lat;lon;timestamp;pressure;altitude;pressure_sealevel;temperature;humidity
35848;BME280;22332;51.954;20.118;2023-02-02T00:02:43;98944.89;;;3.43;82.42
35848;BME280;22332;51.954;20.118;2023-02-02T00:05:50;98941.42;;;3.39;82.15
35848;BME280;22332;51.954;20.118;2023-02-02T00:08:58;98932.48;;;3.37;82.21
35848;BME280;22332;51.954;20.118;2023-02-02T00:12:04;98934.67;;;3.28;82.01
35848;BME280;22332;51.954;20.118;2023-02-02T00:15:10;98931.13;;;3.18;82.66
35848;BME280;22332;51.954;20.118;2023-02-02T00:18:16;98934.44;;;3.11;82.37
35848;BME280;22332;51.954;20.118;2023-02-02T00:21:22;98936.30;;;3.13;82.79
35848;BME280;22332;51.954;20.118;2023-02-02T00:24:28;98935.31;;;3.15;82.61
35848;BME280;22332;51.954;20.118;2023-02-02T00:27:33;98934.80;;;3.25;82.63
35848;BME280;22332;51.954;20.118;2023-02-02T00:30:40;98928.23;;;3.29;82.62
35848;BME280;22332;51.954;20.118;2023-02-02T00:33:47;98931.57;;;3.27;82.61
35848;BME280;22332;51.954;20.118;2023-02-02T00:36:53;98932.98;;;3.27;82.91
35848;BME280;22332;51.954;20.118;2023-02-02T00:39:59;98929.05;;;3.22;82.92
35848;BME280;22332;51.954;20.118;2023-02-02T00:43:05;98926.52;;;3.19;83.23
35848;BME280;22332;51.954;20.118;2023-02-02T00:46:13;98928.79;;;3.17;83.32
35848;BME280;22332;51.954;20.118;2023-02-02T00:49:19;98930.17;;;3.20;83.45
35848;BME280;22332;51.954;20.118;2023-02-02T00:52:25;98932.98;;;3.23;83.57
35848;BME280;22332;51.954;20.118;2023-02-02T00:55:30;98929.41;;;3.24;83.68
35848;BME280;22332;51.954;20.118;2023-02-02T00:58:36;98931.21;;;3.25;83.58
35848;BME280;22332;51.954;20.118;2023-02-02T01:01:41;98929.70;;;3.26;83.72
35848;BME280;22332;51.954;20.118;2023-02-02T01:04:47;98931.48;;;3.18;83.99
35848;BME280;22332;51.954;20.118;2023-02-02T01:07:52;98928.55;;;3.16;83.83
35848;BME280;22332;51.954;20.118;2023-02-02T01:11:00;98931.05;;;3.22;84.29
35848;BME280;22332;51.954;20.118;2023-02-02T01:14:06;98926.30;;;3.20;84.23
35848;BME280;22332;51.954;20.118;2023-02-02T01:17:12;98925.39;;;3.18;84.21
35848;BME280;22332;51.954;20.118;2023-02-02T01:20:19;98922.50;;;3.17;84.35
35848;BME280;22332;51.954;20.118;2023-02-02T01:23:24;98930.77;;;3.10;84.71
35848;BME280;22332;51.954;20.118;2023-02-02T01:26:31;98929.67;;;3.05;85.04
35848;BME280;22332;51.954;20.118;2023-02-02T01:29:37;98932.70;;;3.11;84.86
35848;BME280;22332;51.954;20.118;2023-02-02T01:32:42;98932.29;;;3.17;84.59
35848;BME280;22332;51.954;20.118;2023-02-02T01:35:49;98931.09;;;3.21;84.57
35848;BME280;22332;51.954;20.118;2023-02-02T01:38:55;98933.65;;;3.18;84.78
35848;BME280;22332;51.954;20.118;2023-02-02T01:42:01;98933.26;;;3.14;84.60
35848;BME280;22332;51.954;20.118;2023-02-02T01:45:22;98928.62;;;3.15;84.67
35848;BME280;22332;51.954;20.118;2023-02-02T01:48:31;98920.31;;;3.16;84.70
35848;BME280;22332;51.954;20.118;2023-02-02T01:51:43;98922.41;;;3.24;84.75
35848;BME280;22332;51.954;20.118;2023-02-02T01:54:53;98917.86;;;3.29;84.88
35848;BME280;22332;51.954;20.118;2023-02-02T01:58:05;98912.96;;;3.31;84.89
35848;BME280;22332;51.954;20.118;2023-02-02T02:01:14;98909.06;;;3.31;84.77
35848;BME280;22332;51.954;20.118;2023-02-02T02:04:19;98905.69;;;3.30;85.01
35848;BME280;22332;51.954;20.118;2023-02-02T02:07:26;98910.61;;;3.30;85.10
35848;BME280;22332;51.954;20.118;2023-02-02T02:10:32;98907.43;;;3.32;84.99
35848;BME280;22332;51.954;20.118;2023-02-02T02:13:39;98909.70;;;3.36;84.90
35848;BME280;22332;51.954;20.118;2023-02-02T02:17:16;98911.33;;;3.39;84.87
35848;BME280;22332;51.954;20.118;2023-02-02T02:20:40;98910.42;;;3.38;84.75
35848;BME280;22332;51.954;20.118;2023-02-02T02:24:31;98914.84;;;3.35;84.94
35848;BME280;22332;51.954;20.118;2023-02-02T02:28:19;98915.01;;;3.32;85.10
35848;BME280;22332;51.954;20.118;2023-02-02T02:31:57;98913.89;;;3.32;85.09
35848;BME280;22332;51.954;20.118;2023-02-02T02:35:09;98917.21;;;3.36;84.89
35848;BME280;22332;51.954;20.118;2023-02-02T02:38:23;98916.80;;;3.41;84.81
35848;BME280;22332;51.954;20.118;2023-02-02T02:41:36;98921.21;;;3.41;84.85
35848;BME280;22332;51.954;20.118;2023-02-02T02:44:44;98921.38;;;3.41;84.76
35848;BME280;22332;51.954;20.118;2023-02-02T02:47:50;98924.76;;;3.38;84.76
35848;BME280;22332;51.954;20.118;2023-02-02T02:51:07;98926.13;;;3.39;84.95
35848;BME280;22332;51.954;20.118;2023-02-02T02:54:17;98921.73;;;3.41;84.91
35848;BME280;22332;51.954;20.118;2023-02-02T02:57:37;98915.10;;;3.44;84.78
35848;BME280;22332;51.954;20.118;2023-02-02T03:00:49;98917.93;;;3.44;84.95
35848;BME280;22332;51.954;20.118;2023-02-02T03:04:08;98918.63;;;3.44;84.85
35848;BME280;22332;51.954;20.118;2023-02-02T03:07:20;98927.19;;;3.46;84.71
35848;BME280;22332;51.954;20.118;2023-02-02T03:10:29;98931.15;;;3.42;84.71
35848;BME280;22332;51.954;20.118;2023-02-02T03:13:36;98928.64;;;3.42;84.73
35848;BME280;22332;51.954;20.118;2023-02-02T03:16:41;98927.95;;;3.46;84.82
35848;BME280;22332;51.954;20.118;2023-02-02T03:19:47;98929.59;;;3.47;84.59
35848;BME280;22332;51.954;20.118;2023-02-02T03:22:52;98924.53;;;3.50;84.43
35848;BME280;22332;51.954;20.118;2023-02-02T03:25:58;98935.58;;;3.55;84.68
35848;BME280;22332;51.954;20.118;2023-02-02T03:29:04;98936.88;;;3.54;84.51
35848;BME280;22332;51.954;20.118;2023-02-02T03:32:10;98931.66;;;3.47;84.50
35848;BME280;22332;51.954;20.118;2023-02-02T03:35:16;98934.31;;;3.40;84.66
35848;BME280;22332;51.954;20.118;2023-02-02T03:38:24;98931.38;;;3.41;84.63
35848;BME280;22332;51.954;20.118;2023-02-02T03:41:29;98938.23;;;3.45;84.56
35848;BME280;22332;51.954;20.118;2023-02-02T03:44:35;98936.23;;;3.47;84.44
35848;BME280;22332;51.954;20.118;2023-02-02T03:47:40;98933.12;;;3.49;84.20
35848;BME280;22332;51.954;20.118;2023-02-02T03:50:46;98931.09;;;3.46;84.17
35848;BME280;22332;51.954;20.118;2023-02-02T03:53:51;98930.23;;;3.44;84.22
35848;BME280;22332;51.954;20.118;2023-02-02T03:56:57;98938.25;;;3.43;84.24
35848;BME280;22332;51.954;20.118;2023-02-02T04:00:04;98944.22;;;3.43;84.03
35848;BME280;22332;51.954;20.118;2023-02-02T04:03:16;98946.55;;;3.48;84.05
35848;BME280;22332;51.954;20.118;2023-02-02T04:06:22;98942.70;;;3.52;83.90
35848;BME280;22332;51.954;20.118;2023-02-02T04:09:28;98940.71;;;3.54;84.02
35848;BME280;22332;51.954;20.118;2023-02-02T04:12:34;98941.40;;;3.59;83.89
35848;BME280;22332;51.954;20.118;2023-02-02T04:15:40;98936.92;;;3.59;83.84
35848;BME280;22332;51.954;20.118;2023-02-02T04:18:46;98938.55;;;3.57;84.07
35848;BME280;22332;51.954;20.118;2023-02-02T04:21:52;98934.83;;;3.57;83.92
35848;BME280;22332;51.954;20.118;2023-02-02T04:24:58;98933.94;;;3.59;84.06
35848;BME280;22332;51.954;20.118;2023-02-02T04:28:03;98936.41;;;3.65;83.83
35848;BME280;22332;51.954;20.118;2023-02-02T04:31:09;98930.76;;;3.67;83.79
35848;BME280;22332;51.954;20.118;2023-02-02T04:34:15;98935.38;;;3.72;83.85
35848;BME280;22332;51.954;20.118;2023-02-02T04:37:20;98930.60;;;3.74;83.63
35848;BME280;22332;51.954;20.118;2023-02-02T04:40:26;98926.90;;;3.74;83.57
35848;BME280;22332;51.954;20.118;2023-02-02T04:43:33;98926.02;;;3.72;83.53
35848;BME280;22332;51.954;20.118;2023-02-02T04:46:39;98923.67;;;3.69;83.59
35848;BME280;22332;51.954;20.118;2023-02-02T04:49:45;98917.15;;;3.68;83.68
35848;BME280;22332;51.954;20.118;2023-02-02T04:52:50;98917.11;;;3.70;83.66
35848;BME280;22332;51.954;20.118;2023-02-02T04:55:56;98918.17;;;3.74;83.57
35848;BME280;22332;51.954;20.118;2023-02-02T04:59:02;98919.83;;;3.79;83.60
35848;BME280;22332;51.954;20.118;2023-02-02T05:02:07;98921.85;;;3.80;83.52
35848;BME280;22332;51.954;20.118;2023-02-02T05:05:14;98922.04;;;3.80;83.57
35848;BME280;22332;51.954;20.118;2023-02-02T05:08:19;98915.55;;;3.78;83.44
35848;BME280;22332;51.954;20.118;2023-02-02T05:11:25;98914.77;;;3.76;83.53
35848;BME280;22332;51.954;20.118;2023-02-02T05:14:30;98910.06;;;3.72;83.45
35848;BME280;22332;51.954;20.118;2023-02-02T05:17:36;98912.59;;;3.69;83.63
35848;BME280;22332;51.954;20.118;2023-02-02T05:20:41;98911.25;;;3.70;83.72
35848;BME280;22332;51.954;20.118;2023-02-02T05:23:47;98910.79;;;3.72;83.67
35848;BME280;22332;51.954;20.118;2023-02-02T05:26:53;98907.86;;;3.77;83.75
35848;BME280;22332;51.954;20.118;2023-02-02T05:30:04;98902.90;;;3.81;83.77
35848;BME280;22332;51.954;20.118;2023-02-02T05:33:10;98898.55;;;3.81;83.80
35848;BME280;22332;51.954;20.118;2023-02-02T05:36:16;98896.61;;;3.79;83.85
35848;BME280;22332;51.954;20.118;2023-02-02T05:39:21;98887.89;;;3.76;83.86
35848;BME280;22332;51.954;20.118;2023-02-02T05:42:27;98882.48;;;3.76;83.96
35848;BME280;22332;51.954;20.118;2023-02-02T05:45:32;98881.27;;;3.77;83.92
35848;BME280;22332;51.954;20.118;2023-02-02T05:48:38;98878.55;;;3.80;84.08
35848;BME280;22332;51.954;20.118;2023-02-02T05:51:45;98876.84;;;3.83;83.92
35848;BME280;22332;51.954;20.118;2023-02-02T05:54:51;98866.28;;;3.83;83.85
35848;BME280;22332;51.954;20.118;2023-02-02T05:57:57;98875.37;;;3.84;83.81
35848;BME280;22332;51.954;20.118;2023-02-02T06:01:02;98868.34;;;3.82;83.89
35848;BME280;22332;51.954;20.118;2023-02-02T06:04:08;98869.85;;;3.79;84.05
35848;BME280;22332;51.954;20.118;2023-02-02T06:07:14;98864.88;;;3.76;84.21
35848;BME280;22332;51.954;20.118;2023-02-02T06:10:19;98860.29;;;3.76;84.21
35848;BME280;22332;51.954;20.118;2023-02-02T06:13:25;98857.95;;;3.79;84.25
35848;BME280;22332;51.954;20.118;2023-02-02T06:16:31;98853.59;;;3.80;84.35
35848;BME280;22332;51.954;20.118;2023-02-02T06:19:36;98850.19;;;3.80;84.22
35848;BME280;22332;51.954;20.118;2023-02-02T06:22:42;98850.02;;;3.80;84.23
35848;BME280;22332;51.954;20.118;2023-02-02T06:25:47;98847.67;;;3.75;84.10
35848;BME280;22332;51.954;20.118;2023-02-02T06:28:54;98840.42;;;3.70;84.15
35848;BME280;22332;51.954;20.118;2023-02-02T06:31:59;98844.11;;;3.65;84.17
35848;BME280;22332;51.954;20.118;2023-02-02T06:35:07;98839.39;;;3.62;84.27
35848;BME280;22332;51.954;20.118;2023-02-02T06:38:12;98835.64;;;3.63;84.23
35848;BME280;22332;51.954;20.118;2023-02-02T06:41:18;98830.67;;;3.66;84.19
35848;BME280;22332;51.954;20.118;2023-02-02T06:44:24;98829.70;;;3.68;84.17
35848;BME280;22332;51.954;20.118;2023-02-02T06:47:32;98832.41;;;3.66;83.89
35848;BME280;22332;51.954;20.118;2023-02-02T06:50:38;98826.17;;;3.61;84.06
35848;BME280;22332;51.954;20.118;2023-02-02T06:53:45;98820.16;;;3.57;84.01
35848;BME280;22332;51.954;20.118;2023-02-02T06:56:51;98818.39;;;3.53;83.96
35848;BME280;22332;51.954;20.118;2023-02-02T06:59:57;98821.27;;;3.51;84.19
35848;BME280;22332;51.954;20.118;2023-02-02T07:03:03;98813.88;;;3.47;84.23
35848;BME280;22332;51.954;20.118;2023-02-02T07:06:14;98817.27;;;3.51;84.33
35848;BME280;22332;51.954;20.118;2023-02-02T07:09:20;98812.52;;;3.56;84.26
35848;BME280;22332;51.954;20.118;2023-02-02T07:12:25;98806.94;;;3.60;84.14
35848;BME280;22332;51.954;20.118;2023-02-02T07:15:31;98797.95;;;3.60;84.07
35848;BME280;22332;51.954;20.118;2023-02-02T07:18:37;98797.09;;;3.60;84.00
35848;BME280;22332;51.954;20.118;2023-02-02T07:21:43;98792.49;;;3.60;84.14
35848;BME280;22332;51.954;20.118;2023-02-02T07:24:48;98794.91;;;3.62;84.21
35848;BME280;22332;51.954;20.118;2023-02-02T07:27:54;98791.63;;;3.65;84.09
35848;BME280;22332;51.954;20.118;2023-02-02T07:31:00;98789.10;;;3.72;84.24
35848;BME280;22332;51.954;20.118;2023-02-02T07:34:06;98792.00;;;3.75;84.17
35848;BME280;22332;51.954;20.118;2023-02-02T07:37:11;98790.73;;;3.79;84.04
35848;BME280;22332;51.954;20.118;2023-02-02T07:40:17;98789.04;;;3.78;83.99
35848;BME280;22332;51.954;20.118;2023-02-02T07:43:23;98791.99;;;3.77;83.87
35848;BME280;22332;51.954;20.118;2023-02-02T07:46:28;98797.56;;;3.73;83.85
35848;BME280;22332;51.954;20.118;2023-02-02T07:49:34;98796.55;;;3.69;83.80
35848;BME280;22332;51.954;20.118;2023-02-02T07:52:40;98803.59;;;3.65;83.82
35848;BME280;22332;51.954;20.118;2023-02-02T07:55:45;98801.58;;;3.63;83.80
35848;BME280;22332;51.954;20.118;2023-02-02T07:58:51;98801.83;;;3.62;83.75
35848;BME280;22332;51.954;20.118;2023-02-02T08:01:57;98806.07;;;3.60;83.78
35848;BME280;22332;51.954;20.118;2023-02-02T08:05:03;98809.55;;;3.58;83.63
35848;BME280;22332;51.954;20.118;2023-02-02T08:08:10;98813.06;;;3.54;83.73
35848;BME280;22332;51.954;20.118;2023-02-02T08:11:17;98823.92;;;3.49;83.67
35848;BME280;22332;51.954;20.118;2023-02-02T08:14:23;98824.29;;;3.41;83.63
35848;BME280;22332;51.954;20.118;2023-02-02T08:17:28;98830.02;;;3.33;83.54
35848;BME280;22332;51.954;20.118;2023-02-02T08:20:34;98833.52;;;3.22;83.95
35848;BME280;22332;51.954;20.118;2023-02-02T08:23:41;98832.62;;;3.25;84.11
35848;BME280;22332;51.954;20.118;2023-02-02T08:26:46;98839.52;;;3.34;84.25
35848;BME280;22332;51.954;20.118;2023-02-02T08:29:52;98839.80;;;3.43;84.13
35848;BME280;22332;51.954;20.118;2023-02-02T08:32:57;98846.48;;;3.43;84.27
35848;BME280;22332;51.954;20.118;2023-02-02T08:36:03;98850.91;;;3.42;84.38
35848;BME280;22332;51.954;20.118;2023-02-02T08:39:11;98854.73;;;3.39;84.50
35848;BME280;22332;51.954;20.118;2023-02-02T08:42:17;98862.46;;;3.39;84.69
35848;BME280;22332;51.954;20.118;2023-02-02T08:45:23;98869.08;;;3.34;84.81
35848;BME280;22332;51.954;20.118;2023-02-02T08:48:29;98872.06;;;3.30;85.24
35848;BME280;22332;51.954;20.118;2023-02-02T08:51:34;98875.95;;;3.34;85.48
35848;BME280;22332;51.954;20.118;2023-02-02T08:54:40;98882.52;;;3.35;85.51
35848;BME280;22332;51.954;20.118;2023-02-02T08:57:45;98892.77;;;3.30;85.80
35848;BME280;22332;51.954;20.118;2023-02-02T09:00:51;98894.66;;;3.23;86.16
35848;BME280;22332;51.954;20.118;2023-02-02T09:03:59;98902.73;;;3.18;86.53
35848;BME280;22332;51.954;20.118;2023-02-02T09:07:05;98906.40;;;3.16;86.73
35848;BME280;22332;51.954;20.118;2023-02-02T09:10:11;98908.41;;;3.21;86.86
35848;BME280;22332;51.954;20.118;2023-02-02T09:13:16;98919.77;;;3.22;86.91
35848;BME280;22332;51.954;20.118;2023-02-02T09:16:23;98921.06;;;3.18;87.01
35848;BME280;22332;51.954;20.118;2023-02-02T09:19:29;98930.31;;;3.14;87.37
35848;BME280;22332;51.954;20.118;2023-02-02T09:22:34;98935.05;;;3.12;87.11
35848;BME280;22332;51.954;20.118;2023-02-02T09:25:40;98936.17;;;3.11;87.00
35848;BME280;22332;51.954;20.118;2023-02-02T09:28:46;98948.05;;;3.10;87.33
35848;BME280;22332;51.954;20.118;2023-02-02T09:31:54;98952.11;;;3.02;87.70
35848;BME280;22332;51.954;20.118;2023-02-02T09:34:59;98959.41;;;2.97;88.25
35848;BME280;22332;51.954;20.118;2023-02-02T09:38:04;98963.92;;;3.00;88.17
35848;BME280;22332;51.954;20.118;2023-02-02T09:41:33;98970.44;;;3.05;87.96
35848;BME280;22332;51.954;20.118;2023-02-02T09:44:56;98978.58;;;3.03;88.07
35848;BME280;22332;51.954;20.118;2023-02-02T09:48:10;98990.61;;;3.02;88.25
35848;BME280;22332;51.954;20.118;2023-02-02T09:51:24;98999.54;;;3.00;88.02
35848;BME280;22332;51.954;20.118;2023-02-02T09:54:35;99011.50;;;3.00;87.73
35848;BME280;22332;51.954;20.118;2023-02-02T09:57:43;99012.71;;;2.98;87.99
35848;BME280;22332;51.954;20.118;2023-02-02T10:00:55;99017.55;;;2.95;87.90
35848;BME280;22332;51.954;20.118;2023-02-02T10:04:05;99019.19;;;2.92;88.22
35848;BME280;22332;51.954;20.118;2023-02-02T10:07:18;99024.23;;;2.95;88.54
35848;BME280;22332;51.954;20.118;2023-02-02T10:10:26;99031.76;;;2.93;88.57
35848;BME280;22332;51.954;20.118;2023-02-02T10:13:35;99044.64;;;2.97;88.34
35848;BME280;22332;51.954;20.118;2023-02-02T10:16:42;99050.75;;;3.01;88.16
35848;BME280;22332;51.954;20.118;2023-02-02T10:19:48;99051.27;;;3.01;88.35
35848;BME280;22332;51.954;20.118;2023-02-02T10:23:03;99056.11;;;3.02;88.47
35848;BME280;22332;51.954;20.118;2023-02-02T10:26:15;99062.61;;;3.04;88.56
35848;BME280;22332;51.954;20.118;2023-02-02T10:29:31;99067.72;;;3.08;88.68
35848;BME280;22332;51.954;20.118;2023-02-02T10:32:57;99069.27;;;3.04;89.13
35848;BME280;22332;51.954;20.118;2023-02-02T10:36:14;99075.01;;;3.03;88.87
35848;BME280;22332;51.954;20.118;2023-02-02T10:39:29;99082.05;;;3.06;89.04
35848;BME280;22332;51.954;20.118;2023-02-02T10:42:45;99079.77;;;3.12;89.18
35848;BME280;22332;51.954;20.118;2023-02-02T10:46:10;99094.13;;;3.15;89.02
35848;BME280;22332;51.954;20.118;2023-02-02T10:49:24;99098.11;;;3.14;89.11
35848;BME280;22332;51.954;20.118;2023-02-02T10:52:33;99105.55;;;3.15;89.70
35848;BME280;22332;51.954;20.118;2023-02-02T10:55:41;99109.66;;;3.21;89.61
35848;BME280;22332;51.954;20.118;2023-02-02T10:58:54;99112.25;;;3.29;89.66
35848;BME280;22332;51.954;20.118;2023-02-02T11:02:05;99117.85;;;3.31;89.67
35848;BME280;22332;51.954;20.118;2023-02-02T11:05:19;99123.54;;;3.23;89.92
35848;BME280;22332;51.954;20.118;2023-02-02T11:08:44;99125.59;;;3.22;90.39
35848;BME280;22332;51.954;20.118;2023-02-02T11:11:53;99126.98;;;3.20;90.29
35848;BME280;22332;51.954;20.118;2023-02-02T11:15:01;99136.66;;;3.15;90.84
35848;BME280;22332;51.954;20.118;2023-02-02T11:18:24;99133.66;;;3.15;91.02
35848;BME280;22332;51.954;20.118;2023-02-02T11:21:32;99152.30;;;3.11;91.26
35848;BME280;22332;51.954;20.118;2023-02-02T11:24:46;99147.64;;;3.12;91.46
35848;BME280;22332;51.954;20.118;2023-02-02T11:27:53;99161.39;;;3.08;91.92
35848;BME280;22332;51.954;20.118;2023-02-02T11:30:58;99156.84;;;2.99;92.07
35848;BME280;22332;51.954;20.118;2023-02-02T11:34:25;99163.84;;;2.98;92.16
35848;BME280;22332;51.954;20.118;2023-02-02T11:37:33;99170.02;;;2.97;92.20
35848;BME280;22332;51.954;20.118;2023-02-02T11:40:44;99179.96;;;2.98;91.89
35848;BME280;22332;51.954;20.118;2023-02-02T11:43:52;99180.48;;;2.96;91.72
35848;BME280;22332;51.954;20.118;2023-02-02T11:47:01;99185.37;;;2.92;91.87
35848;BME280;22332;51.954;20.118;2023-02-02T11:50:22;99185.90;;;2.92;92.40
35848;BME280;22332;51.954;20.118;2023-02-02T11:53:32;99192.02;;;2.92;92.24
35848;BME280;22332;51.954;20.118;2023-02-02T11:56:39;99199.77;;;2.92;92.28
35848;BME280;22332;51.954;20.118;2023-02-02T11:59:47;99212.01;;;2.89;92.28
35848;BME280;22332;51.954;20.118;2023-02-02T12:02:53;99215.67;;;2.89;92.22
35848;BME280;22332;51.954;20.118;2023-02-02T12:05:59;99219.89;;;2.93;92.43
35848;BME280;22332;51.954;20.118;2023-02-02T12:09:13;99226.36;;;2.95;91.91
35848;BME280;22332;51.954;20.118;2023-02-02T12:12:29;99232.93;;;2.90;92.21
35848;BME280;22332;51.954;20.118;2023-02-02T12:15:46;99237.95;;;2.87;92.04
35848;BME280;22332;51.954;20.118;2023-02-02T12:19:13;99251.16;;;2.91;92.56
35848;BME280;22332;51.954;20.118;2023-02-02T12:22:34;99268.83;;;2.96;92.93
35848;BME280;22332;51.954;20.118;2023-02-02T12:25:57;99271.61;;;3.05;92.88
35848;BME280;22332;51.954;20.118;2023-02-02T12:29:35;99277.98;;;3.12;93.32
35848;BME280;22332;51.954;20.118;2023-02-02T12:32:54;99287.91;;;3.16;92.88
35848;BME280;22332;51.954;20.118;2023-02-02T12:36:17;99290.39;;;3.20;92.92
35848;BME280;22332;51.954;20.118;2023-02-02T12:39:36;99305.13;;;3.24;92.25
35848;BME280;22332;51.954;20.118;2023-02-02T12:42:54;99311.44;;;3.27;92.15
35848;BME280;22332;51.954;20.118;2023-02-02T12:46:18;99315.45;;;3.29;92.02
35848;BME280;22332;51.954;20.118;2023-02-02T12:49:39;99319.80;;;3.30;92.00
35848;BME280;22332;51.954;20.118;2023-02-02T12:53:01;99328.89;;;3.34;92.03
35848;BME280;22332;51.954;20.118;2023-02-02T12:56:21;99334.94;;;3.38;91.71
35848;BME280;22332;51.954;20.118;2023-02-02T12:59:48;99342.15;;;3.38;91.32
35848;BME280;22332;51.954;20.118;2023-02-02T13:03:11;99345.04;;;3.43;91.12
35848;BME280;22332;51.954;20.118;2023-02-02T13:06:54;99348.09;;;3.50;90.30
35848;BME280;22332;51.954;20.118;2023-02-02T13:10:19;99362.95;;;3.62;89.83
35848;BME280;22332;51.954;20.118;2023-02-02T13:13:31;99376.80;;;3.71;89.36
35848;BME280;22332;51.954;20.118;2023-02-02T13:16:40;99376.84;;;3.72;88.82
35848;BME280;22332;51.954;20.118;2023-02-02T13:19:53;99390.20;;;3.66;87.52
35848;BME280;22332;51.954;20.118;2023-02-02T13:23:06;99388.30;;;3.62;87.43
35848;BME280;22332;51.954;20.118;2023-02-02T13:26:17;99396.83;;;3.54;87.35
35848;BME280;22332;51.954;20.118;2023-02-02T13:29:29;99406.46;;;3.44;86.03
35848;BME280;22332;51.954;20.118;2023-02-02T13:32:38;99407.52;;;3.46;86.87
35848;BME280;22332;51.954;20.118;2023-02-02T13:35:51;99417.81;;;3.45;86.01
35848;BME280;22332;51.954;20.118;2023-02-02T13:39:00;99420.25;;;3.47;86.54
35848;BME280;22332;51.954;20.118;2023-02-02T13:42:12;99428.84;;;3.52;86.45
35848;BME280;22332;51.954;20.118;2023-02-02T13:45:37;99432.89;;;3.52;85.75
35848;BME280;22332;51.954;20.118;2023-02-02T13:48:55;99443.70;;;3.49;85.60
35848;BME280;22332;51.954;20.118;2023-02-02T13:52:12;99452.44;;;3.47;85.49
35848;BME280;22332;51.954;20.118;2023-02-02T13:55:45;99456.52;;;3.49;85.65
35848;BME280;22332;51.954;20.118;2023-02-02T13:59:13;99461.38;;;3.52;85.79
35848;BME280;22332;51.954;20.118;2023-02-02T14:02:28;99466.79;;;3.59;86.11
35848;BME280;22332;51.954;20.118;2023-02-02T14:05:35;99473.41;;;3.64;85.47
35848;BME280;22332;51.954;20.118;2023-02-02T14:08:47;99468.20;;;3.65;85.69
35848;BME280;22332;51.954;20.118;2023-02-02T14:11:57;99475.27;;;3.71;86.08
35848;BME280;22332;51.954;20.118;2023-02-02T14:15:05;99487.48;;;3.72;86.07
35848;BME280;22332;51.954;20.118;2023-02-02T14:18:54;99502.70;;;3.69;85.92
35848;BME280;22332;51.954;20.118;2023-02-02T14:22:03;99525.67;;;3.70;85.92
35848;BME280;22332;51.954;20.118;2023-02-02T14:29:01;99531.70;;;3.63;85.56
35848;BME280;22332;51.954;20.118;2023-02-02T14:32:30;99531.17;;;3.59;84.94
35848;BME280;22332;51.954;20.118;2023-02-02T14:36:02;99536.20;;;3.53;85.00
35848;BME280;22332;51.954;20.118;2023-02-02T14:39:18;99541.81;;;3.49;84.90
35848;BME280;22332;51.954;20.118;2023-02-02T14:42:35;99544.52;;;3.46;85.21
35848;BME280;22332;51.954;20.118;2023-02-02T14:46:23;99552.41;;;3.46;85.44
35848;BME280;22332;51.954;20.118;2023-02-02T14:49:36;99558.73;;;3.46;85.77
35848;BME280;22332;51.954;20.118;2023-02-02T14:52:42;99566.92;;;3.45;85.71
35848;BME280;22332;51.954;20.118;2023-02-02T14:55:55;99581.45;;;3.42;85.92
35848;BME280;22332;51.954;20.118;2023-02-02T14:59:02;99594.02;;;3.32;85.24
35848;BME280;22332;51.954;20.118;2023-02-02T15:02:18;99607.63;;;3.24;85.20
35848;BME280;22332;51.954;20.118;2023-02-02T15:05:43;99611.52;;;3.17;85.38
35848;BME280;22332;51.954;20.118;2023-02-02T15:09:25;99616.05;;;3.06;85.35
35848;BME280;22332;51.954;20.118;2023-02-02T15:12:37;99623.03;;;2.96;85.62
35848;BME280;22332;51.954;20.118;2023-02-02T15:15:44;99627.77;;;2.87;85.90
35848;BME280;22332;51.954;20.118;2023-02-02T15:18:57;99637.40;;;2.81;86.04
35848;BME280;22332;51.954;20.118;2023-02-02T15:22:19;99648.41;;;2.77;86.23
35848;BME280;22332;51.954;20.118;2023-02-02T15:25:33;99652.98;;;2.67;86.36
35848;BME280;22332;51.954;20.118;2023-02-02T15:28:42;99657.61;;;2.59;86.49
35848;BME280;22332;51.954;20.118;2023-02-02T15:31:52;99666.84;;;2.54;86.54
35848;BME280;22332;51.954;20.118;2023-02-02T15:35:03;99673.55;;;2.48;86.70
35848;BME280;22332;51.954;20.118;2023-02-02T15:38:15;99677.54;;;2.45;86.79
35848;BME280;22332;51.954;20.118;2023-02-02T15:41:25;99692.83;;;2.42;87.11
35848;BME280;22332;51.954;20.118;2023-02-02T15:44:31;99704.99;;;2.39;87.03
35848;BME280;22332;51.954;20.118;2023-02-02T15:47:41;99719.07;;;2.33;87.21
35848;BME280;22332;51.954;20.118;2023-02-02T15:50:48;99727.56;;;2.32;87.35
35848;BME280;22332;51.954;20.118;2023-02-02T15:53:57;99735.58;;;2.36;87.31
35848;BME280;22332;51.954;20.118;2023-02-02T16:00:27;99752.27;;;2.48;87.26
35848;BME280;22332;51.954;20.118;2023-02-02T16:03:44;99760.20;;;2.52;87.39
35848;BME280;22332;51.954;20.118;2023-02-02T16:06:51;99773.16;;;2.54;87.21
35848;BME280;22332;51.954;20.118;2023-02-02T16:10:05;99780.48;;;2.55;87.50
35848;BME280;22332;51.954;20.118;2023-02-02T16:13:23;99791.28;;;2.56;87.35
35848;BME280;22332;51.954;20.118;2023-02-02T16:16:31;99804.81;;;2.56;87.41
35848;BME280;22332;51.954;20.118;2023-02-02T16:19:38;99803.09;;;2.53;87.52
35848;BME280;22332;51.954;20.118;2023-02-02T16:22:45;99813.35;;;2.50;87.30
35848;BME280;22332;51.954;20.118;2023-02-02T16:25:53;99820.02;;;2.48;87.31
35848;BME280;22332;51.954;20.118;2023-02-02T16:28:59;99833.18;;;2.43;87.92
35848;BME280;22332;51.954;20.118;2023-02-02T16:32:05;99834.22;;;2.36;88.59
35848;BME280;22332;51.954;20.118;2023-02-02T16:35:30;99835.33;;;2.30;88.90
35848;BME280;22332;51.954;20.118;2023-02-02T16:38:37;99845.25;;;2.24;88.94
35848;BME280;22332;51.954;20.118;2023-02-02T16:41:42;99850.55;;;2.13;89.11
35848;BME280;22332;51.954;20.118;2023-02-02T16:44:52;99856.88;;;2.11;89.37
35848;BME280;22332;51.954;20.118;2023-02-02T16:48:22;99862.52;;;2.11;89.19
35848;BME280;22332;51.954;20.118;2023-02-02T16:51:38;99868.77;;;2.06;89.72
35848;BME280;22332;51.954;20.118;2023-02-02T16:54:53;99874.45;;;2.03;89.53
35848;BME280;22332;51.954;20.118;2023-02-02T16:57:59;99886.21;;;1.98;89.66